sensor_id;sensor_type;location;lat;lon;timestamp;P1;P2;P0
73517;PMS5003;61766;60.318;25.044;2024-02-21T00:02:24;16;12;
73517;PMS5003;61766;60.318;25.044;2024-02-21T00:04:49;10;10;
73517;PMS5003;61766;60.318;25.044;2024-02-21T00:07:15;16;16;
73517;PMS5003;61766;60.318;25.044;2024-02-21T00:09:40;11;11;
73517;PMS5003;61766;60.318;25.044;2024-02-21T00:12:06;15;15;
73517;PMS5003;61766;60.318;25.044;2024-02-21T00:14:31;18;14;
73517;PMS5003;61766;60.318;25.044;2024-02-21T00:16:56;15;15;
73517;PMS5003;61766;60.318;25.044;2024-02-21T00:19:22;14;12;
73517;PMS5003;61766;60.318;25.044;2024-02-21T00:21:47;14;11;
73517;PMS5003;61766;60.318;25.044;2024-02-21T00:24:13;15;14;
73517;PMS5003;61766;60.318;25.044;2024-02-21T00:26:38;17;15;
73517;PMS5003;61766;60.318;25.044;2024-02-21T00:29:04;17;17;
73517;PMS5003;61766;60.318;25.044;2024-02-21T00:31:29;16;14;
73517;PMS5003;61766;60.318;25.044;2024-02-21T00:33:55;11;11;
73517;PMS5003;61766;60.318;25.044;2024-02-21T00:36:20;17;16;
73517;PMS5003;61766;60.318;25.044;2024-02-21T00:38:46;14;12;
73517;PMS5003;61766;60.318;25.044;2024-02-21T00:41:12;15;12;
73517;PMS5003;61766;60.318;25.044;2024-02-21T00:43:38;12;11;
73517;PMS5003;61766;60.318;25.044;2024-02-21T00:46:05;11;11;
73517;PMS5003;61766;60.318;25.044;2024-02-21T00:48:28;10;10;
73517;PMS5003;61766;60.318;25.044;2024-02-21T00:50:54;15;15;
73517;PMS5003;61766;60.318;25.044;2024-02-21T00:53:19;11;10;
73517;PMS5003;61766;60.318;25.044;2024-02-21T00:55:44;12;9;
73517;PMS5003;61766;60.318;25.044;2024-02-21T00:58:10;11;10;
73517;PMS5003;61766;60.318;25.044;2024-02-21T01:00:35;17;17;
73517;PMS5003;61766;60.318;25.044;2024-02-21T01:03:00;18;17;
73517;PMS5003;61766;60.318;25.044;2024-02-21T01:05:26;10;9;
73517;PMS5003;61766;60.318;25.044;2024-02-21T01:07:51;13;13;
73517;PMS5003;61766;60.318;25.044;2024-02-21T01:10:17;18;16;
73517;PMS5003;61766;60.318;25.044;2024-02-21T01:12:42;12;11;
73517;PMS5003;61766;60.318;25.044;2024-02-21T01:15:07;11;11;
73517;PMS5003;61766;60.318;25.044;2024-02-21T01:17:32;12;11;
73517;PMS5003;61766;60.318;25.044;2024-02-21T01:19:58;9;8;
73517;PMS5003;61766;60.318;25.044;2024-02-21T01:22:23;10;10;
73517;PMS5003;61766;60.318;25.044;2024-02-21T01:24:49;13;12;
73517;PMS5003;61766;60.318;25.044;2024-02-21T01:27:14;13;10;
73517;PMS5003;61766;60.318;25.044;2024-02-21T01:29:39;12;12;
73517;PMS5003;61766;60.318;25.044;2024-02-21T01:32:05;16;14;
73517;PMS5003;61766;60.318;25.044;2024-02-21T01:34:31;11;10;
73517;PMS5003;61766;60.318;25.044;2024-02-21T01:36:56;12;10;
73517;PMS5003;61766;60.318;25.044;2024-02-21T01:39:22;12;11;
73517;PMS5003;61766;60.318;25.044;2024-02-21T01:41:47;13;10;
73517;PMS5003;61766;60.318;25.044;2024-02-21T01:44:13;12;10;
73517;PMS5003;61766;60.318;25.044;2024-02-21T01:46:38;11;10;
73517;PMS5003;61766;60.318;25.044;2024-02-21T01:49:04;10;9;
73517;PMS5003;61766;60.318;25.044;2024-02-21T01:51:29;12;10;
73517;PMS5003;61766;60.318;25.044;2024-02-21T01:53:55;11;11;
73517;PMS5003;61766;60.318;25.044;2024-02-21T01:56:20;12;11;
73517;PMS5003;61766;60.318;25.044;2024-02-21T01:58:46;9;9;
73517;PMS5003;61766;60.318;25.044;2024-02-21T02:01:11;9;9;
73517;PMS5003;61766;60.318;25.044;2024-02-21T02:03:36;15;12;
73517;PMS5003;61766;60.318;25.044;2024-02-21T02:06:01;11;11;
73517;PMS5003;61766;60.318;25.044;2024-02-21T02:08:27;12;9;
73517;PMS5003;61766;60.318;25.044;2024-02-21T02:10:52;11;10;
73517;PMS5003;61766;60.318;25.044;2024-02-21T02:13:18;8;8;
73517;PMS5003;61766;60.318;25.044;2024-02-21T02:15:43;10;10;
73517;PMS5003;61766;60.318;25.044;2024-02-21T02:18:09;11;11;
73517;PMS5003;61766;60.318;25.044;2024-02-21T02:20:34;11;10;
73517;PMS5003;61766;60.318;25.044;2024-02-21T02:22:59;5;5;
73517;PMS5003;61766;60.318;25.044;2024-02-21T02:25:24;10;10;
73517;PMS5003;61766;60.318;25.044;2024-02-21T02:27:50;13;10;
73517;PMS5003;61766;60.318;25.044;2024-02-21T02:30:15;8;8;
73517;PMS5003;61766;60.318;25.044;2024-02-21T02:32:44;8;8;
73517;PMS5003;61766;60.318;25.044;2024-02-21T02:35:06;9;8;
73517;PMS5003;61766;60.318;25.044;2024-02-21T02:37:32;11;10;
73517;PMS5003;61766;60.318;25.044;2024-02-21T02:39:57;11;10;
73517;PMS5003;61766;60.318;25.044;2024-02-21T02:42:23;9;9;
73517;PMS5003;61766;60.318;25.044;2024-02-21T02:44:48;10;10;
73517;PMS5003;61766;60.318;25.044;2024-02-21T02:47:13;11;9;
73517;PMS5003;61766;60.318;25.044;2024-02-21T02:49:39;13;12;
73517;PMS5003;61766;60.318;25.044;2024-02-21T02:52:05;11;10;
73517;PMS5003;61766;60.318;25.044;2024-02-21T02:54:30;12;11;
73517;PMS5003;61766;60.318;25.044;2024-02-21T02:56:55;10;9;
73517;PMS5003;61766;60.318;25.044;2024-02-21T02:59:20;10;10;
73517;PMS5003;61766;60.318;25.044;2024-02-21T03:01:45;12;11;
73517;PMS5003;61766;60.318;25.044;2024-02-21T03:04:11;14;12;
73517;PMS5003;61766;60.318;25.044;2024-02-21T03:06:36;10;9;
73517;PMS5003;61766;60.318;25.044;2024-02-21T03:09:02;12;12;
73517;PMS5003;61766;60.318;25.044;2024-02-21T03:11:27;13;11;
73517;PMS5003;61766;60.318;25.044;2024-02-21T03:13:53;11;10;
73517;PMS5003;61766;60.318;25.044;2024-02-21T03:16:18;12;11;
73517;PMS5003;61766;60.318;25.044;2024-02-21T03:18:43;12;10;
73517;PMS5003;61766;60.318;25.044;2024-02-21T03:21:09;12;11;
73517;PMS5003;61766;60.318;25.044;2024-02-21T03:23:34;12;12;
73517;PMS5003;61766;60.318;25.044;2024-02-21T03:25:59;14;14;
73517;PMS5003;61766;60.318;25.044;2024-02-21T03:28:25;10;10;
73517;PMS5003;61766;60.318;25.044;2024-02-21T03:30:50;17;14;
73517;PMS5003;61766;60.318;25.044;2024-02-21T03:33:15;11;11;
73517;PMS5003;61766;60.318;25.044;2024-02-21T03:35:41;14;12;
73517;PMS5003;61766;60.318;25.044;2024-02-21T03:38:06;15;14;
73517;PMS5003;61766;60.318;25.044;2024-02-21T03:40:31;16;14;
73517;PMS5003;61766;60.318;25.044;2024-02-21T03:42:56;18;16;
73517;PMS5003;61766;60.318;25.044;2024-02-21T03:45:22;13;13;
73517;PMS5003;61766;60.318;25.044;2024-02-21T03:47:47;14;11;
73517;PMS5003;61766;60.318;25.044;2024-02-21T03:50:13;12;12;
73517;PMS5003;61766;60.318;25.044;2024-02-21T03:52:38;12;12;
73517;PMS5003;61766;60.318;25.044;2024-02-21T03:55:03;15;15;
73517;PMS5003;61766;60.318;25.044;2024-02-21T03:57:29;14;13;
73517;PMS5003;61766;60.318;25.044;2024-02-21T03:59:54;12;12;
73517;PMS5003;61766;60.318;25.044;2024-02-21T04:02:20;17;17;
73517;PMS5003;61766;60.318;25.044;2024-02-21T04:04:45;19;17;
73517;PMS5003;61766;60.318;25.044;2024-02-21T04:07:11;19;18;
73517;PMS5003;61766;60.318;25.044;2024-02-21T04:09:36;17;17;
73517;PMS5003;61766;60.318;25.044;2024-02-21T04:12:02;18;17;
73517;PMS5003;61766;60.318;25.044;2024-02-21T04:14:27;18;17;
73517;PMS5003;61766;60.318;25.044;2024-02-21T04:16:53;19;19;
73517;PMS5003;61766;60.318;25.044;2024-02-21T04:19:18;16;16;
73517;PMS5003;61766;60.318;25.044;2024-02-21T04:21:43;17;16;
73517;PMS5003;61766;60.318;25.044;2024-02-21T04:24:09;19;19;
73517;PMS5003;61766;60.318;25.044;2024-02-21T04:26:35;17;17;
73517;PMS5003;61766;60.318;25.044;2024-02-21T04:29:00;19;18;
73517;PMS5003;61766;60.318;25.044;2024-02-21T04:31:26;18;17;
73517;PMS5003;61766;60.318;25.044;2024-02-21T04:33:51;13;13;
73517;PMS5003;61766;60.318;25.044;2024-02-21T04:36:16;15;14;
73517;PMS5003;61766;60.318;25.044;2024-02-21T04:38:42;13;13;
73517;PMS5003;61766;60.318;25.044;2024-02-21T04:41:07;17;16;
73517;PMS5003;61766;60.318;25.044;2024-02-21T04:43:32;21;19;
73517;PMS5003;61766;60.318;25.044;2024-02-21T04:45:58;18;18;
73517;PMS5003;61766;60.318;25.044;2024-02-21T04:48:24;25;22;
73517;PMS5003;61766;60.318;25.044;2024-02-21T04:50:49;28;26;
73517;PMS5003;61766;60.318;25.044;2024-02-21T04:53:15;17;17;
73517;PMS5003;61766;60.318;25.044;2024-02-21T04:55:41;19;17;
73517;PMS5003;61766;60.318;25.044;2024-02-21T04:58:07;15;15;
73517;PMS5003;61766;60.318;25.044;2024-02-21T05:00:32;20;19;
73517;PMS5003;61766;60.318;25.044;2024-02-21T05:02:57;26;21;
73517;PMS5003;61766;60.318;25.044;2024-02-21T05:05:23;22;22;
73517;PMS5003;61766;60.318;25.044;2024-02-21T05:07:49;17;16;
73517;PMS5003;61766;60.318;25.044;2024-02-21T05:10:14;18;17;
73517;PMS5003;61766;60.318;25.044;2024-02-21T05:12:40;21;20;
73517;PMS5003;61766;60.318;25.044;2024-02-21T05:15:06;19;19;
73517;PMS5003;61766;60.318;25.044;2024-02-21T05:17:31;25;24;
73517;PMS5003;61766;60.318;25.044;2024-02-21T05:19:57;20;17;
73517;PMS5003;61766;60.318;25.044;2024-02-21T05:22:23;20;18;
73517;PMS5003;61766;60.318;25.044;2024-02-21T05:24:49;18;17;
73517;PMS5003;61766;60.318;25.044;2024-02-21T05:27:14;19;17;
73517;PMS5003;61766;60.318;25.044;2024-02-21T05:29:40;20;20;
73517;PMS5003;61766;60.318;25.044;2024-02-21T05:32:06;20;18;
73517;PMS5003;61766;60.318;25.044;2024-02-21T05:34:31;18;18;
73517;PMS5003;61766;60.318;25.044;2024-02-21T05:36:57;24;23;
73517;PMS5003;61766;60.318;25.044;2024-02-21T05:39:23;18;18;
73517;PMS5003;61766;60.318;25.044;2024-02-21T05:41:48;22;20;
73517;PMS5003;61766;60.318;25.044;2024-02-21T05:44:13;17;17;
73517;PMS5003;61766;60.318;25.044;2024-02-21T05:46:38;17;16;
73517;PMS5003;61766;60.318;25.044;2024-02-21T05:49:04;18;17;
73517;PMS5003;61766;60.318;25.044;2024-02-21T05:51:32;19;18;
73517;PMS5003;61766;60.318;25.044;2024-02-21T05:53:54;21;18;
73517;PMS5003;61766;60.318;25.044;2024-02-21T05:56:20;17;17;
73517;PMS5003;61766;60.318;25.044;2024-02-21T05:58:45;21;21;
73517;PMS5003;61766;60.318;25.044;2024-02-21T06:01:11;22;20;
73517;PMS5003;61766;60.318;25.044;2024-02-21T06:03:36;18;18;
73517;PMS5003;61766;60.318;25.044;2024-02-21T06:06:01;19;17;
73517;PMS5003;61766;60.318;25.044;2024-02-21T06:08:27;20;20;
73517;PMS5003;61766;60.318;25.044;2024-02-21T06:10:52;17;16;
73517;PMS5003;61766;60.318;25.044;2024-02-21T06:13:18;16;16;
73517;PMS5003;61766;60.318;25.044;2024-02-21T06:15:43;19;19;
73517;PMS5003;61766;60.318;25.044;2024-02-21T06:18:09;16;16;
73517;PMS5003;61766;60.318;25.044;2024-02-21T06:20:34;26;24;
73517;PMS5003;61766;60.318;25.044;2024-02-21T06:22:59;22;21;
73517;PMS5003;61766;60.318;25.044;2024-02-21T06:25:24;17;16;
73517;PMS5003;61766;60.318;25.044;2024-02-21T06:27:50;18;17;
73517;PMS5003;61766;60.318;25.044;2024-02-21T06:30:15;18;18;
73517;PMS5003;61766;60.318;25.044;2024-02-21T06:32:41;24;23;
73517;PMS5003;61766;60.318;25.044;2024-02-21T06:35:07;20;18;
73517;PMS5003;61766;60.318;25.044;2024-02-21T06:37:32;20;19;
73517;PMS5003;61766;60.318;25.044;2024-02-21T06:39:58;17;17;
73517;PMS5003;61766;60.318;25.044;2024-02-21T06:42:24;17;15;
73517;PMS5003;61766;60.318;25.044;2024-02-21T06:44:48;17;16;
73517;PMS5003;61766;60.318;25.044;2024-02-21T06:47:14;16;15;
73517;PMS5003;61766;60.318;25.044;2024-02-21T06:49:39;19;16;
73517;PMS5003;61766;60.318;25.044;2024-02-21T06:52:05;19;19;
73517;PMS5003;61766;60.318;25.044;2024-02-21T06:54:31;17;16;
73517;PMS5003;61766;60.318;25.044;2024-02-21T06:56:56;17;16;
73517;PMS5003;61766;60.318;25.044;2024-02-21T06:59:22;15;15;
73517;PMS5003;61766;60.318;25.044;2024-02-21T07:01:48;24;23;
73517;PMS5003;61766;60.318;25.044;2024-02-21T07:04:12;17;17;
73517;PMS5003;61766;60.318;25.044;2024-02-21T07:06:38;15;13;
73517;PMS5003;61766;60.318;25.044;2024-02-21T07:09:04;19;16;
73517;PMS5003;61766;60.318;25.044;2024-02-21T07:11:29;19;18;
73517;PMS5003;61766;60.318;25.044;2024-02-21T07:13:55;17;17;
73517;PMS5003;61766;60.318;25.044;2024-02-21T07:16:20;20;19;
73517;PMS5003;61766;60.318;25.044;2024-02-21T07:18:46;15;15;
73517;PMS5003;61766;60.318;25.044;2024-02-21T07:21:12;13;12;
73517;PMS5003;61766;60.318;25.044;2024-02-21T07:23:40;16;16;
73517;PMS5003;61766;60.318;25.044;2024-02-21T07:26:04;20;18;
73517;PMS5003;61766;60.318;25.044;2024-02-21T07:28:29;23;18;
73517;PMS5003;61766;60.318;25.044;2024-02-21T07:30:55;15;14;
73517;PMS5003;61766;60.318;25.044;2024-02-21T07:33:20;17;17;
73517;PMS5003;61766;60.318;25.044;2024-02-21T07:35:46;18;17;
73517;PMS5003;61766;60.318;25.044;2024-02-21T07:38:12;17;17;
73517;PMS5003;61766;60.318;25.044;2024-02-21T07:40:37;18;16;
73517;PMS5003;61766;60.318;25.044;2024-02-21T07:43:03;15;14;
73517;PMS5003;61766;60.318;25.044;2024-02-21T07:45:28;19;19;
73517;PMS5003;61766;60.318;25.044;2024-02-21T07:47:54;14;14;
73517;PMS5003;61766;60.318;25.044;2024-02-21T07:50:20;17;16;
73517;PMS5003;61766;60.318;25.044;2024-02-21T07:52:45;16;15;
73517;PMS5003;61766;60.318;25.044;2024-02-21T07:55:11;17;17;
73517;PMS5003;61766;60.318;25.044;2024-02-21T07:57:36;17;17;
73517;PMS5003;61766;60.318;25.044;2024-02-21T08:00:02;18;17;
73517;PMS5003;61766;60.318;25.044;2024-02-21T08:02:28;17;17;
73517;PMS5003;61766;60.318;25.044;2024-02-21T08:04:53;18;16;
73517;PMS5003;61766;60.318;25.044;2024-02-21T08:07:18;15;15;
73517;PMS5003;61766;60.318;25.044;2024-02-21T08:09:44;18;16;
73517;PMS5003;61766;60.318;25.044;2024-02-21T08:12:09;24;22;
73517;PMS5003;61766;60.318;25.044;2024-02-21T08:14:35;17;16;
73517;PMS5003;61766;60.318;25.044;2024-02-21T08:17:01;18;17;
73517;PMS5003;61766;60.318;25.044;2024-02-21T08:19:26;17;16;
73517;PMS5003;61766;60.318;25.044;2024-02-21T08:21:52;16;15;
73517;PMS5003;61766;60.318;25.044;2024-02-21T08:24:18;22;22;
73517;PMS5003;61766;60.318;25.044;2024-02-21T08:26:44;25;21;
73517;PMS5003;61766;60.318;25.044;2024-02-21T08:29:09;16;16;
73517;PMS5003;61766;60.318;25.044;2024-02-21T08:31:34;20;20;
73517;PMS5003;61766;60.318;25.044;2024-02-21T08:33:59;21;21;
73517;PMS5003;61766;60.318;25.044;2024-02-21T08:36:24;20;19;
73517;PMS5003;61766;60.318;25.044;2024-02-21T08:38:50;20;19;
73517;PMS5003;61766;60.318;25.044;2024-02-21T08:41:15;22;20;
73517;PMS5003;61766;60.318;25.044;2024-02-21T08:43:41;20;19;
73517;PMS5003;61766;60.318;25.044;2024-02-21T08:46:06;22;21;
73517;PMS5003;61766;60.318;25.044;2024-02-21T08:48:31;19;19;
73517;PMS5003;61766;60.318;25.044;2024-02-21T08:50:57;22;21;
73517;PMS5003;61766;60.318;25.044;2024-02-21T08:53:23;21;21;
73517;PMS5003;61766;60.318;25.044;2024-02-21T08:55:48;21;21;
73517;PMS5003;61766;60.318;25.044;2024-02-21T08:58:14;22;21;
73517;PMS5003;61766;60.318;25.044;2024-02-21T09:00:39;23;21;
73517;PMS5003;61766;60.318;25.044;2024-02-21T09:03:05;25;22;
73517;PMS5003;61766;60.318;25.044;2024-02-21T09:05:31;28;25;
73517;PMS5003;61766;60.318;25.044;2024-02-21T09:07:56;28;25;
73517;PMS5003;61766;60.318;25.044;2024-02-21T09:10:22;29;27;
73517;PMS5003;61766;60.318;25.044;2024-02-21T09:12:47;29;27;
73517;PMS5003;61766;60.318;25.044;2024-02-21T09:15:12;28;26;
73517;PMS5003;61766;60.318;25.044;2024-02-21T09:17:38;29;27;
73517;PMS5003;61766;60.318;25.044;2024-02-21T09:20:03;25;25;
73517;PMS5003;61766;60.318;25.044;2024-02-21T09:22:28;29;27;
73517;PMS5003;61766;60.318;25.044;2024-02-21T09:24:54;23;22;
73517;PMS5003;61766;60.318;25.044;2024-02-21T09:27:19;24;23;
73517;PMS5003;61766;60.318;25.044;2024-02-21T09:29:45;32;30;
73517;PMS5003;61766;60.318;25.044;2024-02-21T09:32:10;27;26;
73517;PMS5003;61766;60.318;25.044;2024-02-21T09:34:36;22;20;
73517;PMS5003;61766;60.318;25.044;2024-02-21T09:37:01;25;23;
73517;PMS5003;61766;60.318;25.044;2024-02-21T09:39:26;24;23;
73517;PMS5003;61766;60.318;25.044;2024-02-21T09:41:53;21;21;
73517;PMS5003;61766;60.318;25.044;2024-02-21T09:44:17;22;21;
73517;PMS5003;61766;60.318;25.044;2024-02-21T09:46:43;25;23;
73517;PMS5003;61766;60.318;25.044;2024-02-21T09:49:12;29;25;
73517;PMS5003;61766;60.318;25.044;2024-02-21T09:51:34;22;21;
73517;PMS5003;61766;60.318;25.044;2024-02-21T09:53:59;26;25;
73517;PMS5003;61766;60.318;25.044;2024-02-21T09:56:25;22;18;
73517;PMS5003;61766;60.318;25.044;2024-02-21T09:58:51;21;20;
73517;PMS5003;61766;60.318;25.044;2024-02-21T10:01:17;24;22;
73517;PMS5003;61766;60.318;25.044;2024-02-21T10:03:42;27;25;
73517;PMS5003;61766;60.318;25.044;2024-02-21T10:06:07;26;23;
73517;PMS5003;61766;60.318;25.044;2024-02-21T10:08:33;21;19;
73517;PMS5003;61766;60.318;25.044;2024-02-21T10:10:58;31;28;
73517;PMS5003;61766;60.318;25.044;2024-02-21T10:13:24;24;22;
73517;PMS5003;61766;60.318;25.044;2024-02-21T10:15:59;23;22;
73517;PMS5003;61766;60.318;25.044;2024-02-21T10:18:14;20;20;
73517;PMS5003;61766;60.318;25.044;2024-02-21T10:20:40;24;20;
73517;PMS5003;61766;60.318;25.044;2024-02-21T10:23:05;21;21;
73517;PMS5003;61766;60.318;25.044;2024-02-21T10:25:30;18;17;
73517;PMS5003;61766;60.318;25.044;2024-02-21T10:27:56;24;17;
73517;PMS5003;61766;60.318;25.044;2024-02-21T10:30:21;20;19;
73517;PMS5003;61766;60.318;25.044;2024-02-21T10:32:50;18;17;
73517;PMS5003;61766;60.318;25.044;2024-02-21T10:35:12;20;19;
73517;PMS5003;61766;60.318;25.044;2024-02-21T10:37:37;22;21;
73517;PMS5003;61766;60.318;25.044;2024-02-21T10:40:03;19;17;
73517;PMS5003;61766;60.318;25.044;2024-02-21T10:42:29;23;21;
73517;PMS5003;61766;60.318;25.044;2024-02-21T10:44:54;22;21;
73517;PMS5003;61766;60.318;25.044;2024-02-21T10:47:20;21;20;
73517;PMS5003;61766;60.318;25.044;2024-02-21T10:49:45;22;21;
73517;PMS5003;61766;60.318;25.044;2024-02-21T10:52:13;23;22;
73517;PMS5003;61766;60.318;25.044;2024-02-21T10:54:40;17;16;
73517;PMS5003;61766;60.318;25.044;2024-02-21T10:57:03;22;19;
73517;PMS5003;61766;60.318;25.044;2024-02-21T10:59:28;19;19;
73517;PMS5003;61766;60.318;25.044;2024-02-21T11:01:54;22;21;
73517;PMS5003;61766;60.318;25.044;2024-02-21T11:04:19;20;19;
73517;PMS5003;61766;60.318;25.044;2024-02-21T11:06:45;26;23;
73517;PMS5003;61766;60.318;25.044;2024-02-21T11:09:11;26;23;
73517;PMS5003;61766;60.318;25.044;2024-02-21T11:11:37;19;18;
73517;PMS5003;61766;60.318;25.044;2024-02-21T11:14:05;18;18;
73517;PMS5003;61766;60.318;25.044;2024-02-21T11:16:27;20;20;
73517;PMS5003;61766;60.318;25.044;2024-02-21T11:18:53;23;22;
73517;PMS5003;61766;60.318;25.044;2024-02-21T11:21:18;19;17;
73517;PMS5003;61766;60.318;25.044;2024-02-21T11:23:43;24;23;
73517;PMS5003;61766;60.318;25.044;2024-02-21T11:26:09;27;25;
73517;PMS5003;61766;60.318;25.044;2024-02-21T11:28:34;19;18;
73517;PMS5003;61766;60.318;25.044;2024-02-21T11:31:07;22;22;
73517;PMS5003;61766;60.318;25.044;2024-02-21T11:33:25;30;27;
73517;PMS5003;61766;60.318;25.044;2024-02-21T11:35:50;21;19;
73517;PMS5003;61766;60.318;25.044;2024-02-21T11:38:15;22;21;
73517;PMS5003;61766;60.318;25.044;2024-02-21T11:40:41;22;19;
73517;PMS5003;61766;60.318;25.044;2024-02-21T11:43:06;22;19;
73517;PMS5003;61766;60.318;25.044;2024-02-21T11:45:32;23;20;
73517;PMS5003;61766;60.318;25.044;2024-02-21T11:47:57;21;21;
73517;PMS5003;61766;60.318;25.044;2024-02-21T11:50:23;24;23;
73517;PMS5003;61766;60.318;25.044;2024-02-21T11:52:48;19;19;
73517;PMS5003;61766;60.318;25.044;2024-02-21T11:55:14;26;26;
73517;PMS5003;61766;60.318;25.044;2024-02-21T11:57:40;26;24;
73517;PMS5003;61766;60.318;25.044;2024-02-21T12:00:12;25;21;
73517;PMS5003;61766;60.318;25.044;2024-02-21T12:02:31;20;18;
73517;PMS5003;61766;60.318;25.044;2024-02-21T12:04:57;23;22;
73517;PMS5003;61766;60.318;25.044;2024-02-21T12:07:23;23;22;
73517;PMS5003;61766;60.318;25.044;2024-02-21T12:09:48;18;18;
73517;PMS5003;61766;60.318;25.044;2024-02-21T12:12:13;24;23;
73517;PMS5003;61766;60.318;25.044;2024-02-21T12:14:39;22;21;
73517;PMS5003;61766;60.318;25.044;2024-02-21T12:17:05;21;20;
73517;PMS5003;61766;60.318;25.044;2024-02-21T12:19:31;24;24;
73517;PMS5003;61766;60.318;25.044;2024-02-21T12:21:56;18;18;
73517;PMS5003;61766;60.318;25.044;2024-02-21T12:24:21;20;19;
73517;PMS5003;61766;60.318;25.044;2024-02-21T12:26:47;26;25;
73517;PMS5003;61766;60.318;25.044;2024-02-21T12:29:12;26;25;
73517;PMS5003;61766;60.318;25.044;2024-02-21T12:31:38;19;17;
73517;PMS5003;61766;60.318;25.044;2024-02-21T12:34:03;23;22;
73517;PMS5003;61766;60.318;25.044;2024-02-21T12:36:28;27;24;
73517;PMS5003;61766;60.318;25.044;2024-02-21T12:38:54;24;20;
73517;PMS5003;61766;60.318;25.044;2024-02-21T12:41:20;20;20;
73517;PMS5003;61766;60.318;25.044;2024-02-21T12:43:45;22;19;
73517;PMS5003;61766;60.318;25.044;2024-02-21T12:46:10;22;21;
73517;PMS5003;61766;60.318;25.044;2024-02-21T12:48:36;23;23;
73517;PMS5003;61766;60.318;25.044;2024-02-21T12:51:01;25;25;
73517;PMS5003;61766;60.318;25.044;2024-02-21T12:53:27;20;19;
73517;PMS5003;61766;60.318;25.044;2024-02-21T12:55:52;23;20;
73517;PMS5003;61766;60.318;25.044;2024-02-21T12:58:18;25;24;
73517;PMS5003;61766;60.318;25.044;2024-02-21T13:00:44;20;20;
73517;PMS5003;61766;60.318;25.044;2024-02-21T13:03:09;23;22;
73517;PMS5003;61766;60.318;25.044;2024-02-21T13:05:34;23;23;
73517;PMS5003;61766;60.318;25.044;2024-02-21T13:08:00;19;18;
73517;PMS5003;61766;60.318;25.044;2024-02-21T13:10:26;18;18;
73517;PMS5003;61766;60.318;25.044;2024-02-21T13:12:52;19;18;
73517;PMS5003;61766;60.318;25.044;2024-02-21T13:15:17;23;22;
73517;PMS5003;61766;60.318;25.044;2024-02-21T13:17:43;23;23;
73517;PMS5003;61766;60.318;25.044;2024-02-21T13:20:08;23;22;
73517;PMS5003;61766;60.318;25.044;2024-02-21T13:22:33;23;21;
73517;PMS5003;61766;60.318;25.044;2024-02-21T13:24:59;18;18;
73517;PMS5003;61766;60.318;25.044;2024-02-21T13:27:25;17;17;
73517;PMS5003;61766;60.318;25.044;2024-02-21T13:29:50;18;17;
73517;PMS5003;61766;60.318;25.044;2024-02-21T13:32:15;22;20;
73517;PMS5003;61766;60.318;25.044;2024-02-21T13:34:41;21;19;
73517;PMS5003;61766;60.318;25.044;2024-02-21T13:37:06;20;18;
73517;PMS5003;61766;60.318;25.044;2024-02-21T13:39:32;21;20;
73517;PMS5003;61766;60.318;25.044;2024-02-21T13:41:58;24;23;
73517;PMS5003;61766;60.318;25.044;2024-02-21T13:44:23;22;21;
73517;PMS5003;61766;60.318;25.044;2024-02-21T13:46:48;22;21;
73517;PMS5003;61766;60.318;25.044;2024-02-21T13:49:14;22;20;
73517;PMS5003;61766;60.318;25.044;2024-02-21T13:51:39;30;27;
73517;PMS5003;61766;60.318;25.044;2024-02-21T13:54:05;23;21;
73517;PMS5003;61766;60.318;25.044;2024-02-21T13:56:31;24;23;
73517;PMS5003;61766;60.318;25.044;2024-02-21T13:58:57;23;23;
73517;PMS5003;61766;60.318;25.044;2024-02-21T14:01:22;25;24;
73517;PMS5003;61766;60.318;25.044;2024-02-21T14:03:47;25;23;
73517;PMS5003;61766;60.318;25.044;2024-02-21T14:06:12;24;23;
73517;PMS5003;61766;60.318;25.044;2024-02-21T14:08:38;22;21;
73517;PMS5003;61766;60.318;25.044;2024-02-21T14:11:04;22;21;
73517;PMS5003;61766;60.318;25.044;2024-02-21T14:13:30;23;22;
73517;PMS5003;61766;60.318;25.044;2024-02-21T14:15:55;23;21;
73517;PMS5003;61766;60.318;25.044;2024-02-21T14:18:21;21;20;
73517;PMS5003;61766;60.318;25.044;2024-02-21T14:20:46;22;20;
73517;PMS5003;61766;60.318;25.044;2024-02-21T14:23:12;19;19;
73517;PMS5003;61766;60.318;25.044;2024-02-21T14:25:38;19;19;
73517;PMS5003;61766;60.318;25.044;2024-02-21T14:28:04;20;19;
73517;PMS5003;61766;60.318;25.044;2024-02-21T14:30:29;22;19;
73517;PMS5003;61766;60.318;25.044;2024-02-21T14:32:54;31;29;
73517;PMS5003;61766;60.318;25.044;2024-02-21T14:35:20;22;22;
73517;PMS5003;61766;60.318;25.044;2024-02-21T14:37:45;29;27;
73517;PMS5003;61766;60.318;25.044;2024-02-21T14:40:11;24;23;
73517;PMS5003;61766;60.318;25.044;2024-02-21T14:42:36;27;26;
73517;PMS5003;61766;60.318;25.044;2024-02-21T14:45:01;23;21;
73517;PMS5003;61766;60.318;25.044;2024-02-21T14:47:26;28;26;
73517;PMS5003;61766;60.318;25.044;2024-02-21T14:49:52;28;27;
73517;PMS5003;61766;60.318;25.044;2024-02-21T14:52:18;28;24;
73517;PMS5003;61766;60.318;25.044;2024-02-21T14:54:43;23;22;
73517;PMS5003;61766;60.318;25.044;2024-02-21T14:57:09;26;22;
73517;PMS5003;61766;60.318;25.044;2024-02-21T14:59:35;28;25;
73517;PMS5003;61766;60.318;25.044;2024-02-21T15:02:01;25;24;
73517;PMS5003;61766;60.318;25.044;2024-02-21T15:04:26;28;24;
73517;PMS5003;61766;60.318;25.044;2024-02-21T15:06:52;26;25;
73517;PMS5003;61766;60.318;25.044;2024-02-21T15:09:17;23;21;
73517;PMS5003;61766;60.318;25.044;2024-02-21T15:11:43;28;27;
73517;PMS5003;61766;60.318;25.044;2024-02-21T15:14:08;26;26;
73517;PMS5003;61766;60.318;25.044;2024-02-21T15:16:33;31;29;
73517;PMS5003;61766;60.318;25.044;2024-02-21T15:18:58;22;22;
73517;PMS5003;61766;60.318;25.044;2024-02-21T15:21:24;28;26;
73517;PMS5003;61766;60.318;25.044;2024-02-21T15:23:50;21;21;
73517;PMS5003;61766;60.318;25.044;2024-02-21T15:26:15;23;21;
73517;PMS5003;61766;60.318;25.044;2024-02-21T15:28:41;24;24;
73517;PMS5003;61766;60.318;25.044;2024-02-21T15:31:06;33;29;
73517;PMS5003;61766;60.318;25.044;2024-02-21T15:33:31;30;27;
73517;PMS5003;61766;60.318;25.044;2024-02-21T15:35:57;25;25;
73517;PMS5003;61766;60.318;25.044;2024-02-21T15:38:23;24;23;
73517;PMS5003;61766;60.318;25.044;2024-02-21T15:40:48;24;24;
73517;PMS5003;61766;60.318;25.044;2024-02-21T15:43:13;21;21;
73517;PMS5003;61766;60.318;25.044;2024-02-21T15:45:39;24;24;
73517;PMS5003;61766;60.318;25.044;2024-02-21T15:48:05;25;24;
73517;PMS5003;61766;60.318;25.044;2024-02-21T15:50:30;25;24;